Mount Lucas, Texas
Current Conditions -  °F | °C
As of 10:15 AM on Monday 22 Dec 2014 (Local Time) from KBEA Reporting Station
Overcast Overcast  
Wind Chill: 64°   Ceiling: 1100
Heat Index: 64°   Visibility: 10mi
Dew Point: 60°   Wind: 8mph
Humidity: 89%   Direction: 230°SW
Pressure: 29.79"   Gusts: NA
Location:  28.2266°N, 97.9616°W
Report Text: KBEA 221615Z AUTO 23007KT 10SM OVC011 18/16 A2979 RMK AO2 T01750156
Loading
Personal Weather Stations






























Interactive Weather Map New forecast layout! Learn more

10-Day Weather Forecast

Advertisements
Track Severe Weather on mobile